createdAt,value
2023-01-27T00:01:36.993Z,0.46
2023-01-27T00:04:03.310Z,0.52
2023-01-27T00:06:29.644Z,0.40
2023-01-27T00:08:55.961Z,0.54
2023-01-27T00:11:22.251Z,0.46
2023-01-27T00:13:48.602Z,0.64
2023-01-27T00:16:14.971Z,0.82
2023-01-27T00:18:41.281Z,0.30
2023-01-27T00:21:07.562Z,0.22
2023-01-27T00:23:33.867Z,0.45
2023-01-27T00:26:00.150Z,0.38
2023-01-27T00:28:26.527Z,0.10
2023-01-27T00:30:52.934Z,0.43
2023-01-27T00:33:19.313Z,0.14
2023-01-27T00:35:52.938Z,0.13
2023-01-27T00:38:19.342Z,0.23
2023-01-27T00:40:45.630Z,0.30
2023-01-27T00:43:11.908Z,0.31
2023-01-27T00:45:38.216Z,0.27
2023-01-27T00:48:04.495Z,0.14
2023-01-27T00:50:30.778Z,0.18
2023-01-27T00:52:57.130Z,0.09
2023-01-27T00:55:23.414Z,0.17
2023-01-27T00:57:49.689Z,-0.05
2023-01-27T01:00:16.321Z,0.23
2023-01-27T01:02:42.885Z,0.06
2023-01-27T01:05:09.162Z,0.22
2023-01-27T01:07:35.464Z,0.33
2023-01-27T01:10:01.748Z,0.13
2023-01-27T01:12:28.042Z,0.13
2023-01-27T01:14:54.341Z,0.32
2023-01-27T01:17:20.613Z,0.12
2023-01-27T01:19:46.912Z,0.18
2023-01-27T01:22:13.206Z,-0.12
2023-01-27T01:24:39.500Z,-0.12
2023-01-27T01:27:05.788Z,-0.08
2023-01-27T01:29:32.090Z,-0.13
2023-01-27T01:31:58.385Z,-0.04
2023-01-27T01:34:24.669Z,0.15
2023-01-27T01:36:50.971Z,0.10
2023-01-27T01:39:17.258Z,0.04
2023-01-27T01:41:43.538Z,0.01
2023-01-27T01:44:09.855Z,0.10
2023-01-27T01:46:36.159Z,0.16
2023-01-27T01:49:02.450Z,0.12
2023-01-27T01:51:28.755Z,0.09
2023-01-27T01:53:55.031Z,0.13
2023-01-27T01:56:21.312Z,0.16
2023-01-27T01:58:47.671Z,-0.13
2023-01-27T02:01:14.092Z,-0.32
2023-01-27T02:03:40.402Z,-0.05
2023-01-27T02:06:06.711Z,0.05
2023-01-27T02:08:32.993Z,0.15
2023-01-27T02:10:59.270Z,0.30
2023-01-27T02:13:25.595Z,0.01
2023-01-27T02:15:51.883Z,-0.01
2023-01-27T02:18:18.181Z,0.15
2023-01-27T02:20:44.486Z,-0.02
2023-01-27T02:23:10.781Z,0.02
2023-01-27T02:25:37.124Z,-0.25
2023-01-27T02:28:03.569Z,-0.07
2023-01-27T02:30:29.905Z,-0.03
2023-01-27T02:32:56.235Z,-0.17
2023-01-27T02:35:22.543Z,-0.12
2023-01-27T02:37:48.831Z,-0.08
2023-01-27T02:40:15.129Z,-0.08
2023-01-27T02:42:41.455Z,-0.10
2023-01-27T02:45:07.741Z,-0.13
2023-01-27T02:47:34.012Z,-0.30
2023-01-27T02:50:00.334Z,-0.09
2023-01-27T02:52:26.617Z,-0.37
2023-01-27T02:54:52.901Z,-0.32
2023-01-27T02:57:19.195Z,0.00
2023-01-27T02:59:45.490Z,-0.14
2023-01-27T03:02:11.828Z,-0.14
2023-01-27T03:04:38.476Z,-0.02
2023-01-27T03:07:04.764Z,-0.22
2023-01-27T03:09:31.037Z,-0.10
2023-01-27T03:11:57.328Z,-0.37
2023-01-27T03:14:23.669Z,-0.20
2023-01-27T03:16:49.956Z,-0.40
2023-01-27T03:19:16.282Z,-0.52
2023-01-27T03:21:42.572Z,-0.52
2023-01-27T03:24:08.868Z,-0.57
2023-01-27T03:26:35.199Z,-0.43
2023-01-27T03:29:01.526Z,-0.50
2023-01-27T03:31:27.923Z,-0.44
2023-01-27T03:33:54.254Z,-0.30
2023-01-27T03:36:20.564Z,-0.35
2023-01-27T03:38:46.884Z,-0.45
2023-01-27T03:41:13.328Z,-0.23
2023-01-27T03:43:39.620Z,-0.35
2023-01-27T03:46:07.112Z,-0.35
2023-01-27T03:48:33.548Z,-0.43
2023-01-27T03:50:59.821Z,-0.52
2023-01-27T03:53:26.113Z,-0.45
2023-01-27T03:55:52.417Z,-0.52
2023-01-27T03:58:18.712Z,-0.36
2023-01-27T04:00:45.001Z,-0.39
2023-01-27T04:03:11.313Z,-0.39
2023-01-27T04:05:37.647Z,-0.41
2023-01-27T04:08:03.921Z,-0.16
2023-01-27T04:10:30.266Z,0.15
2023-01-27T04:12:56.546Z,-0.11
2023-01-27T04:15:24.873Z,-0.28
2023-01-27T04:17:51.186Z,-0.17
2023-01-27T04:20:17.537Z,-0.11
2023-01-27T04:22:43.825Z,-0.36
2023-01-27T04:25:12.175Z,-0.21
2023-01-27T04:27:39.290Z,-0.20
2023-01-27T04:30:05.576Z,-0.20
2023-01-27T04:32:31.901Z,-0.34
2023-01-27T04:34:58.357Z,-0.40
2023-01-27T04:37:24.636Z,-0.29
2023-01-27T04:39:50.940Z,-0.31
2023-01-27T04:42:17.230Z,-0.21
2023-01-27T04:44:43.520Z,-0.23
2023-01-27T04:47:09.820Z,-0.45
2023-01-27T04:49:36.132Z,-0.40
2023-01-27T04:52:02.428Z,-0.63
2023-01-27T04:54:28.735Z,-0.54
2023-01-27T04:56:55.046Z,-0.41
2023-01-27T04:59:21.355Z,-0.21
2023-01-27T05:01:47.862Z,-0.45
2023-01-27T05:04:14.159Z,-0.37
2023-01-27T05:06:40.464Z,-0.50
2023-01-27T05:09:06.771Z,-0.38
2023-01-27T05:11:33.051Z,-0.32
2023-01-27T05:13:59.332Z,-0.40
2023-01-27T05:16:25.734Z,-0.49
2023-01-27T05:18:52.235Z,-0.70
2023-01-27T05:21:18.547Z,-0.55
2023-01-27T05:23:45.094Z,-0.60
2023-01-27T05:26:11.384Z,-0.59
2023-01-27T05:28:37.663Z,-0.71
2023-01-27T05:31:04.029Z,-0.67
2023-01-27T05:33:30.395Z,-0.47
2023-01-27T05:35:56.675Z,-0.78
2023-01-27T05:38:22.976Z,-0.74
2023-01-27T05:40:49.262Z,-0.54
2023-01-27T05:43:15.535Z,-0.67
2023-01-27T05:45:41.856Z,-0.69
2023-01-27T05:48:10.563Z,-0.67
2023-01-27T05:50:36.855Z,-0.71
2023-01-27T05:53:03.174Z,-0.57
2023-01-27T05:55:29.456Z,-0.66
2023-01-27T05:57:58.766Z,-0.66
2023-01-27T06:00:25.083Z,-0.54
2023-01-27T06:02:51.438Z,-0.49
2023-01-27T06:05:17.771Z,-0.58
2023-01-27T06:07:44.087Z,-0.60
2023-01-27T06:10:10.399Z,-0.67
2023-01-27T06:12:36.682Z,-0.70
2023-01-27T06:15:02.983Z,-0.52
2023-01-27T06:17:29.304Z,-0.69
2023-01-27T06:19:55.603Z,-0.58
2023-01-27T06:22:22.307Z,-0.48
2023-01-27T06:24:48.595Z,-0.67
2023-01-27T06:27:15.061Z,-0.43
2023-01-27T06:29:41.363Z,-0.56
2023-01-27T06:32:07.701Z,-0.73
2023-01-27T06:34:34.073Z,-0.74
2023-01-27T06:37:00.388Z,-0.67
2023-01-27T06:39:26.685Z,-0.64
2023-01-27T06:41:53.085Z,-0.63
2023-01-27T06:44:19.394Z,-0.51
2023-01-27T06:46:45.692Z,-0.49
2023-01-27T06:49:12.035Z,-0.36
2023-01-27T06:51:38.343Z,-0.45
2023-01-27T06:54:04.663Z,-0.28
2023-01-27T06:56:30.941Z,-0.17
2023-01-27T06:58:57.243Z,-0.25
2023-01-27T07:01:23.572Z,-0.40
2023-01-27T07:03:49.879Z,-0.45
2023-01-27T07:06:16.188Z,-0.63
2023-01-27T07:08:42.502Z,-0.44
2023-01-27T07:11:08.793Z,-0.60
2023-01-27T07:13:35.108Z,-0.50
2023-01-27T07:16:01.460Z,-0.35
2023-01-27T07:18:27.819Z,-0.48
2023-01-27T07:20:54.128Z,-0.58
2023-01-27T07:23:20.428Z,-0.51
2023-01-27T07:25:46.722Z,-0.59
2023-01-27T07:28:13.069Z,-0.58
2023-01-27T07:30:39.484Z,-0.53
2023-01-27T07:33:05.824Z,-0.44
2023-01-27T07:35:32.164Z,-0.36
2023-01-27T07:37:58.457Z,-0.43
2023-01-27T07:40:24.760Z,-0.54
2023-01-27T07:42:53.392Z,-0.63
2023-01-27T07:45:19.688Z,-0.51
2023-01-27T07:47:45.961Z,-0.39
2023-01-27T07:50:12.553Z,-0.34
2023-01-27T07:52:39.018Z,-0.49
2023-01-27T07:55:05.315Z,-0.46
2023-01-27T07:57:31.636Z,-0.45
2023-01-27T07:59:57.926Z,-0.29
2023-01-27T08:02:24.227Z,-0.45
2023-01-27T08:04:53.235Z,-0.31
2023-01-27T08:07:20.086Z,-0.23
2023-01-27T08:09:46.378Z,-0.13
2023-01-27T08:12:12.679Z,-0.17
2023-01-27T08:14:38.962Z,-0.23
2023-01-27T08:17:05.257Z,-0.23
2023-01-27T08:19:31.574Z,-0.14
2023-01-27T08:21:57.867Z,-0.02
2023-01-27T08:24:24.180Z,-0.02
2023-01-27T08:26:50.495Z,-0.27
2023-01-27T08:29:16.793Z,-0.29
2023-01-27T08:31:43.122Z,-0.24
2023-01-27T08:34:09.469Z,-0.31
2023-01-27T08:36:35.749Z,-0.44
2023-01-27T08:39:02.046Z,-0.42
2023-01-27T08:41:28.385Z,-0.39
2023-01-27T08:43:54.684Z,-0.15
2023-01-27T08:46:20.980Z,-0.29
2023-01-27T08:48:47.294Z,-0.33
2023-01-27T08:51:13.594Z,-0.32
2023-01-27T08:53:39.890Z,-0.32
2023-01-27T08:56:06.182Z,-0.36
2023-01-27T08:58:32.458Z,-0.51
2023-01-27T09:00:58.767Z,-0.43
2023-01-27T09:03:25.096Z,-0.52
2023-01-27T09:05:51.386Z,-0.52
2023-01-27T09:08:17.743Z,-0.46
2023-01-27T09:10:44.043Z,-0.40
2023-01-27T09:13:10.331Z,-0.45
2023-01-27T09:15:36.612Z,-0.36
2023-01-27T09:18:05.328Z,-0.38
2023-01-27T09:20:32.519Z,-0.17
2023-01-27T09:22:58.794Z,-0.35
2023-01-27T09:25:25.099Z,-0.24
2023-01-27T09:27:51.404Z,-0.26
2023-01-27T09:30:17.695Z,-0.26
2023-01-27T09:32:44.030Z,-0.35
2023-01-27T09:35:10.539Z,-0.33
2023-01-27T09:37:37.347Z,-0.41
2023-01-27T09:40:03.671Z,-0.37
2023-01-27T09:42:29.952Z,-0.29
2023-01-27T09:44:56.231Z,-0.34
2023-01-27T09:47:22.533Z,-0.28
2023-01-27T09:49:48.828Z,-0.15
2023-01-27T09:52:15.122Z,-0.36
2023-01-27T09:54:41.435Z,-0.37
2023-01-27T09:57:07.733Z,-0.48
2023-01-27T09:59:34.030Z,-0.32
2023-01-27T10:02:00.344Z,-0.37
2023-01-27T10:04:26.669Z,-0.33
2023-01-27T10:06:52.959Z,-0.51
2023-01-27T10:09:19.264Z,-0.57
2023-01-27T10:11:45.543Z,-0.40
2023-01-27T10:14:11.817Z,-0.46
2023-01-27T10:16:38.246Z,-0.42
2023-01-27T10:19:04.589Z,-0.33
2023-01-27T10:21:30.889Z,-0.37
2023-01-27T10:23:57.205Z,-0.58
2023-01-27T10:26:23.509Z,-0.53
2023-01-27T10:28:49.894Z,-0.47
2023-01-27T10:31:16.350Z,-0.44
2023-01-27T10:33:42.700Z,-0.45
2023-01-27T10:36:08.994Z,-0.43
2023-01-27T10:38:35.301Z,-0.49
2023-01-27T10:41:01.602Z,-0.45
2023-01-27T10:43:27.918Z,-0.41
2023-01-27T10:45:54.274Z,-0.40
2023-01-27T10:48:20.574Z,-0.37
2023-01-27T10:50:46.867Z,-0.20
2023-01-27T10:53:13.168Z,-0.24
2023-01-27T10:55:39.463Z,-0.39
2023-01-27T10:58:05.740Z,-0.36
2023-01-27T11:01:18.181Z,-0.39
2023-01-27T11:03:18.300Z,-0.46
2023-01-27T11:05:44.592Z,-0.30
2023-01-27T11:08:19.896Z,-0.26
2023-01-27T11:10:46.198Z,-0.38
2023-01-27T11:13:12.481Z,-0.40
2023-01-27T11:15:38.761Z,-0.43
2023-01-27T11:18:05.086Z,-0.49
2023-01-27T11:20:31.362Z,-0.44
2023-01-27T11:22:57.652Z,-0.43
2023-01-27T11:25:23.969Z,-0.36
2023-01-27T11:27:50.246Z,-0.39
2023-01-27T11:30:17.073Z,-0.34
2023-01-27T11:32:43.713Z,-0.37
2023-01-27T11:35:10.015Z,-0.39
2023-01-27T11:37:36.303Z,-0.32
2023-01-27T11:40:02.606Z,-0.31
2023-01-27T11:42:28.901Z,-0.37
2023-01-27T11:44:55.191Z,-0.46
2023-01-27T11:47:21.535Z,-0.48
2023-01-27T11:49:47.920Z,-0.39
2023-01-27T11:52:14.208Z,-0.40
2023-01-27T11:54:40.517Z,-0.49
2023-01-27T11:57:06.821Z,-0.43
2023-01-27T11:59:33.103Z,-0.38
2023-01-27T12:01:59.406Z,-0.26
2023-01-27T12:04:25.757Z,-0.30
2023-01-27T12:06:52.063Z,-0.30
2023-01-27T12:09:18.371Z,-0.21
2023-01-27T12:11:44.660Z,-0.28
2023-01-27T12:14:10.954Z,-0.26
2023-01-27T12:16:37.254Z,-0.09
2023-01-27T12:19:03.564Z,-0.08
2023-01-27T12:21:29.863Z,-0.08
2023-01-27T12:23:56.215Z,-0.01
2023-01-27T12:26:22.527Z,-0.04
2023-01-27T12:28:48.808Z,-0.06
2023-01-27T12:31:15.235Z,-0.12
2023-01-27T12:33:41.586Z,-0.04
2023-01-27T12:36:07.875Z,0.01
2023-01-27T12:38:34.187Z,0.01
2023-01-27T12:41:00.483Z,0.18
2023-01-27T12:43:26.782Z,0.24
2023-01-27T12:45:53.089Z,0.10
2023-01-27T12:48:19.379Z,0.01
2023-01-27T12:50:45.659Z,0.10
2023-01-27T12:53:11.998Z,0.12
2023-01-27T12:55:38.287Z,-0.13
2023-01-27T12:58:04.564Z,0.05
2023-01-27T13:00:30.997Z,0.03
2023-01-27T13:02:57.335Z,-0.08
2023-01-27T13:05:23.630Z,-0.14
2023-01-27T13:07:49.927Z,-0.05
2023-01-27T13:10:16.414Z,-0.09
2023-01-27T13:12:42.851Z,-0.04
2023-01-27T13:15:09.163Z,-0.03
2023-01-27T13:17:35.560Z,-0.14
2023-01-27T13:20:01.911Z,0.18
2023-01-27T13:22:28.224Z,-0.03
2023-01-27T13:24:54.516Z,-0.09
2023-01-27T13:27:20.815Z,-0.04
2023-01-27T13:29:47.123Z,0.02
2023-01-27T13:32:13.406Z,-0.09
2023-01-27T13:34:39.686Z,-0.06
2023-01-27T13:37:05.981Z,0.03
2023-01-27T13:39:32.267Z,0.00
2023-01-27T13:41:58.552Z,-0.21
2023-01-27T13:44:24.867Z,-0.06
2023-01-27T13:46:51.175Z,-0.08
2023-01-27T13:49:17.500Z,-0.04
2023-01-27T13:51:43.813Z,-0.07
2023-01-27T13:54:10.103Z,-0.12
2023-01-27T13:56:36.381Z,-0.05
2023-01-27T13:59:02.720Z,0.03
2023-01-27T14:01:29.047Z,-0.08
2023-01-27T14:03:55.390Z,-0.05
2023-01-27T14:06:21.703Z,-0.15
2023-01-27T14:08:47.992Z,-0.08
2023-01-27T14:11:14.271Z,-0.08
2023-01-27T14:13:40.572Z,-0.17
2023-01-27T14:16:06.983Z,-0.21
2023-01-27T14:18:33.496Z,-0.14
2023-01-27T14:20:59.810Z,-0.09
2023-01-27T14:23:26.391Z,-0.11
2023-01-27T14:25:52.835Z,-0.27
2023-01-27T14:28:19.142Z,-0.07
2023-01-27T14:30:47.792Z,-0.13
2023-01-27T14:33:14.108Z,-0.08
2023-01-27T14:35:40.434Z,-0.12
2023-01-27T14:38:06.733Z,-0.07
2023-01-27T14:40:33.026Z,-0.10
2023-01-27T14:42:59.352Z,-0.09
2023-01-27T14:45:25.647Z,-0.01
2023-01-27T14:47:51.951Z,-0.06
2023-01-27T14:50:18.258Z,0.11
2023-01-27T14:52:44.581Z,0.01
2023-01-27T14:55:10.879Z,0.04
2023-01-27T14:57:37.217Z,0.06
2023-01-27T15:00:03.612Z,0.07
2023-01-27T15:02:30.017Z,0.01
2023-01-27T15:04:56.347Z,0.10
2023-01-27T15:07:22.620Z,0.14
2023-01-27T15:09:48.895Z,0.09
2023-01-27T15:12:15.198Z,0.01
2023-01-27T15:14:43.229Z,0.01
2023-01-27T15:17:09.744Z,0.03
2023-01-27T15:19:36.049Z,-0.07
2023-01-27T15:22:02.345Z,-0.18
2023-01-27T15:24:28.673Z,-0.08
2023-01-27T15:26:55.020Z,-0.13
2023-01-27T15:29:21.296Z,-0.11
2023-01-27T15:31:47.670Z,-0.11
2023-01-27T15:34:14.015Z,-0.13
2023-01-27T15:36:40.319Z,-0.09
2023-01-27T15:39:06.679Z,0.01
2023-01-27T15:41:32.995Z,-0.02
2023-01-27T15:43:59.299Z,0.02
2023-01-27T15:46:25.592Z,-0.04
2023-01-27T15:48:51.891Z,-0.09
2023-01-27T15:51:18.187Z,-0.01
2023-01-27T15:53:44.484Z,-0.02
2023-01-27T15:56:10.804Z,-0.05
2023-01-27T15:58:37.108Z,-0.05
2023-01-27T16:01:03.413Z,-0.15
2023-01-27T16:03:29.730Z,-0.04
2023-01-27T16:05:56.028Z,-0.08
2023-01-27T16:08:22.325Z,-0.06
2023-01-27T16:10:48.666Z,0.03
2023-01-27T16:13:14.950Z,0.05
2023-01-27T16:15:41.242Z,0.02
2023-01-27T16:18:07.549Z,-0.11
2023-01-27T16:20:33.843Z,0.02
2023-01-27T16:23:00.142Z,0.02
2023-01-27T16:25:26.444Z,-0.04
2023-01-27T16:27:52.754Z,-0.02
2023-01-27T16:30:19.133Z,-0.12
2023-01-27T16:32:45.539Z,-0.07
2023-01-27T16:35:12.255Z,0.06
2023-01-27T16:37:38.678Z,-0.11
2023-01-27T16:40:04.985Z,0.02
2023-01-27T16:42:31.315Z,-0.04
2023-01-27T16:44:57.610Z,-0.12
2023-01-27T16:47:23.932Z,-0.09
2023-01-27T16:49:50.270Z,-0.02
2023-01-27T16:52:16.564Z,-0.03
2023-01-27T16:54:42.858Z,0.02
2023-01-27T16:57:09.143Z,-0.07
2023-01-27T16:59:35.451Z,-0.07
2023-01-27T17:02:01.761Z,-0.16
2023-01-27T17:04:28.036Z,-0.15
2023-01-27T17:06:54.365Z,-0.07
2023-01-27T17:09:20.709Z,-0.13
2023-01-27T17:11:47.002Z,-0.22
2023-01-27T17:14:28.449Z,-0.23
2023-01-27T17:16:56.962Z,-0.15
2023-01-27T17:19:24.159Z,-0.20
2023-01-27T17:21:50.458Z,-0.24
2023-01-27T17:24:16.794Z,-0.35
2023-01-27T17:26:43.089Z,-0.26
2023-01-27T17:29:09.373Z,-0.24
2023-01-27T17:31:35.777Z,-0.40
2023-01-27T17:34:02.133Z,-0.31
2023-01-27T17:36:28.410Z,-0.36
2023-01-27T17:38:54.717Z,-0.29
2023-01-27T17:41:21.005Z,-0.41
2023-01-27T17:43:47.300Z,-0.44
2023-01-27T17:46:13.627Z,-0.43
2023-01-27T17:48:39.929Z,-0.42
2023-01-27T17:51:06.211Z,-0.49
2023-01-27T17:53:36.209Z,-0.53
2023-01-27T17:56:02.495Z,-0.46
2023-01-27T17:58:28.778Z,-0.48
2023-01-27T18:00:55.097Z,-0.42
2023-01-27T18:03:21.373Z,-0.45
2023-01-27T18:05:47.661Z,-0.47
2023-01-27T18:08:13.975Z,-0.36
2023-01-27T18:10:40.258Z,-0.35
2023-01-27T18:13:06.531Z,-0.44
2023-01-27T18:15:32.841Z,-0.34
2023-01-27T18:17:59.129Z,-0.30
2023-01-27T18:20:25.427Z,-0.36
2023-01-27T18:22:53.295Z,-0.30
2023-01-27T18:25:19.574Z,-0.36
2023-01-27T18:27:45.868Z,-0.35
2023-01-27T18:30:12.174Z,-0.34
2023-01-27T18:32:38.471Z,-0.38
2023-01-27T18:35:04.763Z,-0.32
2023-01-27T18:37:31.075Z,-0.42
2023-01-27T18:39:57.378Z,-0.35
2023-01-27T18:42:23.651Z,-0.38
2023-01-27T18:44:49.960Z,-0.43
2023-01-27T18:47:16.242Z,-0.35
2023-01-27T18:49:42.537Z,-0.29
2023-01-27T18:52:08.870Z,-0.33
2023-01-27T18:54:35.156Z,-0.35
2023-01-27T18:57:01.440Z,-0.34
2023-01-27T18:59:27.748Z,-0.15
2023-01-27T19:01:54.055Z,-0.18
2023-01-27T19:04:20.376Z,-0.17
2023-01-27T19:06:46.685Z,-0.18
2023-01-27T19:09:12.971Z,-0.08
2023-01-27T19:11:39.247Z,-0.30
2023-01-27T19:14:05.558Z,-0.28
2023-01-27T19:16:31.866Z,-0.26
2023-01-27T19:18:58.154Z,-0.12
2023-01-27T19:21:24.455Z,-0.26
2023-01-27T19:23:50.805Z,-0.26
2023-01-27T19:26:17.130Z,-0.26
2023-01-27T19:28:43.582Z,-0.24
2023-01-27T19:31:09.926Z,-0.25
2023-01-27T19:33:36.259Z,-0.28
2023-01-27T19:36:02.573Z,-0.19
2023-01-27T19:38:28.883Z,-0.23
2023-01-27T19:40:55.171Z,-0.22
2023-01-27T19:43:21.474Z,-0.28
2023-01-27T19:45:47.827Z,-0.16
2023-01-27T19:48:14.133Z,-0.20
2023-01-27T19:50:40.440Z,-0.23
2023-01-27T19:53:06.722Z,-0.25
2023-01-27T19:55:33.022Z,-0.13
2023-01-27T19:57:59.334Z,-0.18
2023-01-27T20:00:25.611Z,-0.16
2023-01-27T20:02:51.888Z,-0.16
2023-01-27T20:05:18.199Z,-0.21
2023-01-27T20:07:44.484Z,-0.15
2023-01-27T20:10:10.766Z,-0.12
2023-01-27T20:12:37.066Z,-0.07
2023-01-27T20:15:03.389Z,-0.03
2023-01-27T20:17:29.693Z,0.04
2023-01-27T20:19:56.003Z,0.03
2023-01-27T20:22:22.283Z,-0.02
2023-01-27T20:24:48.561Z,0.12
2023-01-27T20:27:14.861Z,0.05
2023-01-27T20:29:41.139Z,-0.05
2023-01-27T20:32:07.494Z,-0.11
2023-01-27T20:34:33.869Z,0.08
2023-01-27T20:37:00.146Z,0.15
2023-01-27T20:39:26.427Z,0.09
2023-01-27T20:41:52.727Z,0.09
2023-01-27T20:44:19.013Z,0.05
2023-01-27T20:46:45.297Z,0.10
2023-01-27T20:49:11.629Z,0.18
2023-01-27T20:51:37.924Z,0.15
2023-01-27T20:54:04.204Z,0.11
2023-01-27T20:56:30.513Z,0.04
2023-01-27T20:58:56.802Z,0.09
2023-01-27T21:01:23.149Z,-0.01
2023-01-27T21:03:49.510Z,-0.01
2023-01-27T21:06:15.845Z,0.10
2023-01-27T21:08:42.159Z,0.04
2023-01-27T21:11:08.463Z,0.07
2023-01-27T21:13:34.743Z,-0.02
2023-01-27T21:16:01.231Z,0.04
2023-01-27T21:18:27.526Z,-0.05
2023-01-27T21:20:53.832Z,0.02
2023-01-27T21:23:20.109Z,0.13
2023-01-27T21:25:46.402Z,0.13
2023-01-27T21:28:12.687Z,-0.01
2023-01-27T21:30:39.000Z,0.04
2023-01-27T21:33:05.318Z,0.10
2023-01-27T21:35:33.260Z,0.02
2023-01-27T21:37:59.964Z,0.25
2023-01-27T21:40:26.307Z,0.17
2023-01-27T21:42:52.738Z,0.11
2023-01-27T21:45:19.100Z,0.14
2023-01-27T21:47:45.659Z,0.25
2023-01-27T21:50:11.949Z,0.16
2023-01-27T21:52:38.237Z,0.03
2023-01-27T21:55:04.904Z,0.13
2023-01-27T21:57:31.221Z,0.14
2023-01-27T21:59:57.495Z,-0.04
2023-01-27T22:02:23.785Z,-0.01
2023-01-27T22:04:50.087Z,-0.03
2023-01-27T22:07:16.397Z,-0.01
2023-01-27T22:09:42.701Z,-0.02
2023-01-27T22:12:08.982Z,0.03
2023-01-27T22:14:35.262Z,-0.07
2023-01-27T22:17:01.557Z,-0.08
2023-01-27T22:19:27.840Z,0.02
2023-01-27T22:21:54.135Z,0.17
2023-01-27T22:24:20.481Z,0.14
2023-01-27T22:26:46.788Z,0.59
2023-01-27T22:29:13.074Z,0.59
2023-01-27T22:31:39.362Z,0.45
2023-01-27T22:34:05.639Z,0.47
2023-01-27T22:36:31.919Z,0.45
2023-01-27T22:38:58.215Z,0.40
2023-01-27T22:41:24.511Z,0.50
2023-01-27T22:43:50.788Z,0.31
2023-01-27T22:46:18.934Z,0.50
2023-01-27T22:48:45.207Z,0.57
2023-01-27T22:51:11.516Z,0.40
2023-01-27T22:53:37.827Z,0.40
2023-01-27T22:56:04.121Z,0.30
2023-01-27T22:58:30.450Z,0.33
2023-01-27T23:00:56.792Z,0.57
2023-01-27T23:03:23.152Z,0.61
2023-01-27T23:05:49.431Z,0.63
2023-01-27T23:08:15.741Z,0.45
2023-01-27T23:10:42.032Z,0.61
2023-01-27T23:13:08.316Z,0.47
2023-01-27T23:15:34.624Z,0.53
2023-01-27T23:18:00.922Z,0.58
2023-01-27T23:20:27.210Z,0.57
2023-01-27T23:22:53.511Z,0.42
2023-01-27T23:25:19.800Z,0.75
2023-01-27T23:27:46.203Z,0.65
2023-01-27T23:30:12.505Z,0.48
2023-01-27T23:32:38.801Z,0.45
2023-01-27T23:35:05.090Z,0.37
2023-01-27T23:37:31.409Z,0.28
2023-01-27T23:39:57.694Z,0.38
2023-01-27T23:42:23.982Z,0.36
2023-01-27T23:44:50.281Z,0.41
2023-01-27T23:47:16.579Z,0.31
2023-01-27T23:49:43.959Z,0.28
2023-01-27T23:52:10.296Z,0.43
2023-01-27T23:54:36.593Z,0.43
2023-01-27T23:57:02.892Z,0.54
2023-01-27T23:59:29.192Z,0.44
